Time;durP1;ratioP1;P1;durP2;ratioP2;P2;SDS_P1;SDS_P2;PMS_P1;PMS_P2;Temp;Humidity;BMP_temperature;BMP_pressure;BME280_temperature;BME280_humidity;BME280_pressure;Samples;Min_cycle;Max_cycle;Signal;HPM_P1;HPM_P2
2021/11/08 00:00:31;;;;;;;3.50;1.87;;;21.80;53.80;;;;;;5054887;28;20412;-78
2021/11/08 00:03:02;;;;;;;3.83;1.97;;;21.80;53.80;;;;;;5071919;28;20739;-78
2021/11/08 00:05:29;;;;;;;3.03;1.73;;;21.80;53.80;;;;;;5055033;28;20410;-78
2021/11/08 00:08:00;;;;;;;2.53;2.07;;;21.80;53.80;;;;;;5074554;28;20424;-78
2021/11/08 00:10:32;;;;;;;1.70;1.53;;;21.80;53.80;;;;;;5076481;28;20429;-79
2021/11/08 00:12:59;;;;;;;2.33;1.73;;;21.80;53.80;;;;;;5059139;28;20389;-79
2021/11/08 00:15:31;;;;;;;1.60;1.40;;;21.80;53.80;;;;;;5076998;28;20421;-79
2021/11/08 00:18:03;;;;;;;3.30;1.73;;;21.80;53.90;;;;;;5077091;28;20429;-78
2021/11/08 00:20:40;;;;;;;2.73;1.57;;;21.80;53.80;;;;;;5077534;28;20389;-78
2021/11/08 00:23:09;;;;;;;1.70;1.30;;;21.80;53.80;;;;;;5059064;28;20406;-78
2021/11/08 00:25:38;;;;;;;2.40;1.93;;;21.80;53.80;;;;;;5075498;28;20408;-78
2021/11/08 00:28:05;;;;;;;2.17;1.67;;;21.80;53.80;;;;;;5058256;28;20444;-78
2021/11/08 00:30:32;;;;;;;2.57;1.83;;;21.80;53.80;;;;;;5058070;28;20413;-78
2021/11/08 00:32:58;;;;;;;2.40;1.60;;;21.70;53.70;;;;;;5074881;28;20405;-78
2021/11/08 00:35:24;;;;;;;1.97;1.27;;;21.70;53.80;;;;;;5057830;28;20408;-78
2021/11/08 00:37:50;;;;;;;2.00;1.50;;;21.70;53.80;;;;;;5057412;28;20436;-78
2021/11/08 00:40:16;;;;;;;2.40;1.30;;;21.80;53.80;;;;;;5057331;28;20499;-78
2021/11/08 00:42:43;;;;;;;2.17;1.70;;;21.80;53.80;;;;;;5075557;28;20417;-78
2021/11/08 00:45:09;;;;;;;1.77;1.50;;;21.80;53.80;;;;;;5057514;28;20175;-78
2021/11/08 00:47:36;;;;;;;4.53;1.40;;;21.80;53.80;;;;;;5075333;28;20409;-78
2021/11/08 00:50:04;;;;;;;2.93;1.80;;;21.70;53.70;;;;;;5057566;28;20448;-78
2021/11/08 00:52:30;;;;;;;2.00;1.23;;;21.80;53.80;;;;;;5074977;28;20410;-78
2021/11/08 00:54:58;;;;;;;1.87;1.50;;;21.80;54.40;;;;;;5057985;28;20424;-78
2021/11/08 00:57:27;;;;;;;1.90;1.33;;;21.80;53.80;;;;;;5057370;28;20181;-78
2021/11/08 00:59:54;;;;;;;2.27;1.60;;;21.80;53.80;;;;;;5057678;28;20483;-78
2021/11/08 01:02:24;;;;;;;2.27;1.63;;;21.80;53.80;;;;;;5057974;28;20908;-78
2021/11/08 01:04:51;;;;;;;2.03;1.40;;;21.70;53.70;;;;;;5058339;28;20457;-78
2021/11/08 01:07:18;;;;;;;1.90;1.60;;;21.70;53.70;;;;;;5058733;28;20420;-78
2021/11/08 01:09:45;;;;;;;1.40;1.30;;;21.80;53.80;;;;;;5057799;28;20417;-78
2021/11/08 01:12:12;;;;;;;1.90;1.33;;;21.70;53.70;;;;;;5058708;28;20495;-78
2021/11/08 01:14:38;;;;;;;2.40;1.53;;;21.70;53.70;;;;;;5058735;28;20456;-78
2021/11/08 01:17:05;;;;;;;3.00;1.73;;;21.70;53.70;;;;;;5057376;28;20453;-78
2021/11/08 01:19:33;;;;;;;2.70;1.50;;;21.70;53.70;;;;;;5076274;28;20460;-78
2021/11/08 01:22:21;;;;;;;1.80;1.33;;;21.80;53.80;;;;;;5067686;28;20415;-78
2021/11/08 01:24:56;;;;;;;1.97;1.40;;;21.70;53.70;;;;;;5037379;28;20415;-78
2021/11/08 01:27:31;;;;;;;1.73;1.57;;;21.70;53.80;;;;;;5053824;28;20394;-78
2021/11/08 01:29:57;;;;;;;2.13;1.50;;;21.70;53.80;;;;;;5063180;28;20440;-79
2021/11/08 01:32:23;;;;;;;2.10;1.20;;;21.70;54.30;;;;;;5056628;28;20421;-78
2021/11/08 01:34:49;;;;;;;1.93;1.50;;;21.70;53.80;;;;;;5074630;28;20405;-78
2021/11/08 01:37:18;;;;;;;1.97;1.57;;;21.70;53.80;;;;;;5074021;28;20413;-77
2021/11/08 01:39:44;;;;;;;3.13;1.50;;;21.70;53.80;;;;;;5073818;28;20198;-79
2021/11/08 01:42:12;;;;;;;1.97;1.30;;;21.70;53.80;;;;;;5055410;28;20551;-78
2021/11/08 01:44:38;;;;;;;1.37;1.27;;;21.70;53.80;;;;;;5074453;28;20412;-78
2021/11/08 01:47:06;;;;;;;2.80;1.43;;;21.70;53.80;;;;;;5056961;28;20424;-78
2021/11/08 01:49:33;;;;;;;2.80;1.77;;;21.70;53.80;;;;;;5057203;28;20418;-78
2021/11/08 01:51:59;;;;;;;1.70;1.33;;;21.70;53.80;;;;;;5074651;28;20551;-78
2021/11/08 01:54:27;;;;;;;1.93;1.50;;;21.70;53.80;;;;;;5074845;28;20413;-78
2021/11/08 01:56:56;;;;;;;3.00;1.43;;;21.70;53.80;;;;;;5074587;28;20414;-78
2021/11/08 01:59:23;;;;;;;1.50;1.13;;;21.70;53.80;;;;;;5055961;28;20457;-78
2021/11/08 02:01:56;;;;;;;2.10;1.43;;;21.70;53.80;;;;;;5056324;28;20484;-78
2021/11/08 02:04:23;;;;;;;2.07;1.30;;;21.70;53.80;;;;;;5058496;28;20406;-78
2021/11/08 02:06:52;;;;;;;2.13;1.20;;;21.70;53.80;;;;;;5058147;28;20448;-78
2021/11/08 02:09:19;;;;;;;1.23;1.10;;;21.70;53.80;;;;;;5074354;28;20437;-78
2021/11/08 02:11:45;;;;;;;2.70;1.60;;;21.70;53.80;;;;;;5058282;28;20506;-78
2021/11/08 02:14:28;;;;;;;2.20;1.60;;;21.70;53.80;;;;;;5057379;28;20437;-78
2021/11/08 02:16:54;;;;;;;2.40;1.67;;;21.70;53.80;;;;;;5073893;28;20476;-78
2021/11/08 02:19:24;;;;;;;1.60;1.20;;;21.70;53.80;;;;;;5075287;28;20457;-79
2021/11/08 02:21:51;;;;;;;1.73;1.20;;;21.70;53.80;;;;;;5057314;28;20175;-79
2021/11/08 02:24:18;;;;;;;2.60;1.87;;;21.70;53.80;;;;;;5055930;28;20954;-79
2021/11/08 02:26:44;;;;;;;1.87;1.50;;;21.70;53.80;;;;;;5073604;28;20405;-79
2021/11/08 02:29:12;;;;;;;2.40;1.87;;;21.70;53.80;;;;;;5055804;28;20424;-79
2021/11/08 02:31:39;;;;;;;2.30;1.60;;;21.70;53.80;;;;;;5054951;28;20421;-79
2021/11/08 02:34:04;;;;;;;2.47;1.43;;;21.70;53.80;;;;;;5049006;28;20524;-80
2021/11/08 02:36:30;;;;;;;2.23;1.30;;;21.70;53.80;;;;;;5036296;28;20406;-79
2021/11/08 02:42:19;;;;;;;2.53;1.47;;;21.70;53.80;;;;;;5053981;28;20155;-78
2021/11/08 02:44:44;;;;;;;1.37;1.10;;;21.60;53.80;;;;;;5035439;28;20490;-78
2021/11/08 02:47:11;;;;;;;1.93;1.47;;;21.60;53.80;;;;;;5035831;28;20415;-78
2021/11/08 02:49:41;;;;;;;2.73;1.60;;;21.60;53.80;;;;;;5035878;28;20171;-78
2021/11/08 02:52:09;;;;;;;1.90;1.10;;;21.60;53.80;;;;;;5035723;28;20449;-78
2021/11/08 02:54:41;;;;;;;1.93;1.40;;;21.60;53.80;;;;;;5035098;28;20490;-78
2021/11/08 02:57:08;;;;;;;1.60;1.20;;;21.60;53.80;;;;;;5035714;28;20442;-79
2021/11/08 02:59:36;;;;;;;1.77;1.20;;;21.60;53.80;;;;;;5052575;28;20938;-78
2021/11/08 03:02:03;;;;;;;1.30;0.90;;;21.60;53.80;;;;;;5037304;28;20407;-79
2021/11/08 03:04:33;;;;;;;1.40;1.10;;;21.60;53.80;;;;;;5037695;28;20429;-79
2021/11/08 03:07:00;;;;;;;1.43;1.10;;;21.70;53.80;;;;;;5054326;28;20403;-79
2021/11/08 03:09:33;;;;;;;2.63;1.30;;;21.60;53.80;;;;;;5037312;28;20430;-79
2021/11/08 03:12:06;;;;;;;2.37;1.43;;;21.60;53.80;;;;;;5054338;28;20442;-78
2021/11/08 03:14:34;;;;;;;1.70;1.37;;;21.60;53.80;;;;;;5036220;28;20463;-78
2021/11/08 03:17:01;;;;;;;1.60;1.10;;;21.60;53.80;;;;;;5037856;28;20465;-79
2021/11/08 03:22:15;;;;;;;1.80;1.60;;;21.60;53.80;;;;;;5053119;28;20386;-78
2021/11/08 03:24:50;;;;;;;1.57;1.23;;;21.60;53.80;;;;;;5052970;28;20422;-79
2021/11/08 03:30:19;;;;;;;1.80;1.40;;;21.60;53.80;;;;;;5052739;28;20397;-79
2021/11/08 03:32:47;;;;;;;1.60;1.30;;;21.60;53.80;;;;;;5049423;28;20397;-78
2021/11/08 03:35:15;;;;;;;2.03;1.37;;;21.60;53.80;;;;;;5032899;28;20434;-78
2021/11/08 03:37:43;;;;;;;1.90;1.40;;;21.60;53.80;;;;;;5049598;28;20410;-78
2021/11/08 03:40:21;;;;;;;1.30;1.00;;;21.60;53.80;;;;;;5030815;28;20493;-79
2021/11/08 03:42:48;;;;;;;1.50;1.20;;;21.60;53.80;;;;;;5036752;28;20425;-78
2021/11/08 03:45:14;;;;;;;1.73;1.13;;;21.60;53.80;;;;;;5055515;28;20406;-78
2021/11/08 03:47:43;;;;;;;2.83;1.80;;;21.60;54.10;;;;;;5053723;28;20421;-78
2021/11/08 03:50:10;;;;;;;1.47;1.00;;;21.60;53.80;;;;;;5053728;28;20398;-78
2021/11/08 03:52:38;;;;;;;1.97;1.83;;;21.60;53.80;;;;;;5053481;28;20410;-78
2021/11/08 03:55:05;;;;;;;1.20;1.00;;;21.60;53.80;;;;;;5035945;28;20421;-78
2021/11/08 03:57:31;;;;;;;1.97;1.30;;;21.60;53.80;;;;;;5054093;28;20410;-78
2021/11/08 03:59:56;;;;;;;1.57;1.33;;;21.60;53.80;;;;;;5053667;28;20450;-77
2021/11/08 04:02:23;;;;;;;1.43;1.10;;;21.60;53.80;;;;;;5036386;28;20173;-77
2021/11/08 04:04:50;;;;;;;1.80;1.60;;;21.60;53.80;;;;;;5036332;28;20175;-77
2021/11/08 04:07:16;;;;;;;2.17;1.20;;;21.60;53.80;;;;;;5036529;28;20418;-77
2021/11/08 04:09:43;;;;;;;1.67;1.30;;;21.60;53.80;;;;;;5036532;28;20417;-77
2021/11/08 04:12:09;;;;;;;2.10;1.50;;;21.60;53.80;;;;;;5054207;28;20410;-77
2021/11/08 04:17:57;;;;;;;1.20;0.90;;;21.60;53.70;;;;;;5054693;28;20429;-77
2021/11/08 04:20:24;;;;;;;1.20;1.10;;;21.60;53.80;;;;;;5054425;28;20453;-77
2021/11/08 04:22:52;;;;;;;1.70;1.20;;;21.60;53.80;;;;;;5037046;28;20194;-78
2021/11/08 04:25:22;;;;;;;1.50;1.10;;;21.60;53.80;;;;;;5054891;28;20417;-77
2021/11/08 04:27:47;;;;;;;1.43;0.97;;;21.60;53.80;;;;;;5057023;28;20425;-78
2021/11/08 04:30:14;;;;;;;1.80;1.20;;;21.60;53.80;;;;;;5039621;28;20422;-77
2021/11/08 04:35:31;;;;;;;1.23;1.03;;;21.60;53.80;;;;;;5041451;28;20405;-77
2021/11/08 04:40:45;;;;;;;1.67;1.33;;;21.60;53.80;;;;;;5055439;28;20448;-78
2021/11/08 04:54:11;;;;;;;1.33;1.07;;;21.60;53.80;;;;;;5051585;28;20416;-79
2021/11/08 05:31:49;;;;;;;2.30;1.33;;;21.50;53.80;;;;;;4960959;28;20415;-76
2021/11/08 05:34:16;;;;;;;1.80;1.00;;;21.50;53.80;;;;;;5032829;28;20396;-76
2021/11/08 05:36:43;;;;;;;1.30;1.20;;;21.50;53.90;;;;;;5012635;28;20423;-76
2021/11/08 05:39:10;;;;;;;1.83;1.10;;;21.50;53.80;;;;;;5028868;28;20487;-76
2021/11/08 05:41:36;;;;;;;1.40;1.00;;;21.50;53.80;;;;;;5029106;28;20434;-76
2021/11/08 05:44:03;;;;;;;2.50;1.17;;;21.50;53.80;;;;;;5028686;28;20419;-76
2021/11/08 05:46:32;;;;;;;1.37;1.10;;;21.60;53.80;;;;;;5030414;28;20400;-76
2021/11/08 05:48:58;;;;;;;1.73;1.20;;;21.60;53.80;;;;;;5028427;28;20473;-76
2021/11/08 05:51:24;;;;;;;1.07;0.97;;;21.60;53.80;;;;;;5012914;28;20411;-77
2021/11/08 05:57:43;;;;;;;2.00;1.20;;;21.60;53.70;;;;;;5033182;28;20371;-80
2021/11/08 06:50:04;;;;;;;2.63;1.20;;;21.70;53.60;;;;;;5032886;28;20427;-79
2021/11/08 06:52:30;;;;;;;1.60;1.30;;;21.70;53.60;;;;;;5015125;28;20487;-80
2021/11/08 06:55:01;;;;;;;1.47;1.10;;;21.70;53.60;;;;;;5032121;28;20431;-79
2021/11/08 06:57:31;;;;;;;1.93;1.20;;;21.70;53.60;;;;;;5031969;28;20431;-79
2021/11/08 06:59:58;;;;;;;1.23;1.00;;;21.70;53.60;;;;;;5032606;28;20470;-80
2021/11/08 07:02:25;;;;;;;2.63;1.00;;;21.80;53.70;;;;;;5015820;28;20416;-79
2021/11/08 07:04:52;;;;;;;1.70;1.20;;;21.80;53.60;;;;;;5032846;28;20415;-79
2021/11/08 07:07:18;;;;;;;1.47;0.93;;;21.80;53.60;;;;;;5032613;28;20403;-79
2021/11/08 07:09:44;;;;;;;1.10;0.90;;;21.80;53.60;;;;;;5033106;28;20420;-81
2021/11/08 07:12:15;;;;;;;1.53;1.00;;;21.80;53.60;;;;;;5031878;28;20423;-77
2021/11/08 07:14:41;;;;;;;1.50;1.10;;;21.80;53.60;;;;;;5032910;28;20418;-78
2021/11/08 07:20:29;;;;;;;2.60;1.27;;;21.80;53.50;;;;;;5034963;28;20235;-76
2021/11/08 07:22:55;;;;;;;1.60;1.40;;;21.80;53.60;;;;;;5034274;28;20435;-77
2021/11/08 07:25:21;;;;;;;1.30;1.13;;;21.80;53.60;;;;;;5017469;28;20463;-76
2021/11/08 07:27:47;;;;;;;1.33;1.07;;;21.80;53.60;;;;;;5034407;28;20399;-77
2021/11/08 07:33:37;;;;;;;1.43;1.20;;;21.80;53.60;;;;;;5033628;28;20926;-79
2021/11/08 07:36:14;;;;;;;1.90;1.20;;;21.80;53.60;;;;;;5031829;28;20414;-82
2021/11/08 07:38:41;;;;;;;1.23;1.00;;;21.80;53.60;;;;;;5015748;28;20458;-79
2021/11/08 07:41:10;;;;;;;1.30;1.10;;;21.80;53.60;;;;;;5032592;28;20419;-80
2021/11/08 07:43:37;;;;;;;1.70;1.20;;;21.80;53.60;;;;;;5033649;28;20438;-80
2021/11/08 07:46:03;;;;;;;2.60;1.20;;;21.80;53.50;;;;;;5016354;28;20523;-80
2021/11/08 07:51:52;;;;;;;1.77;1.00;;;21.90;53.50;;;;;;5033540;28;20237;-79
2021/11/08 07:54:18;;;;;;;1.97;1.20;;;21.80;53.60;;;;;;5033828;28;20463;-79
2021/11/08 07:56:47;;;;;;;1.30;1.00;;;21.80;53.50;;;;;;5033731;28;20484;-78
2021/11/08 07:59:15;;;;;;;1.40;1.10;;;21.80;53.50;;;;;;5033277;28;20451;-79
2021/11/08 08:01:41;;;;;;;2.37;1.37;;;21.80;53.50;;;;;;5033649;28;20451;-80
2021/11/08 08:04:07;;;;;;;1.97;1.77;;;21.80;53.50;;;;;;5034185;28;20438;-80
2021/11/08 08:09:56;;;;;;;1.40;1.10;;;21.90;53.50;;;;;;5033968;28;20163;-80
2021/11/08 08:12:22;;;;;;;2.27;1.13;;;21.80;53.60;;;;;;5033373;28;20506;-79
2021/11/08 08:14:47;;;;;;;1.20;1.10;;;21.80;53.60;;;;;;5016706;28;20830;-79
2021/11/08 08:17:14;;;;;;;1.30;1.00;;;21.80;53.50;;;;;;5016031;28;20423;-78
2021/11/08 08:19:41;;;;;;;2.43;1.20;;;21.80;53.50;;;;;;5032979;28;20234;-79
2021/11/08 08:22:08;;;;;;;4.80;1.50;;;21.80;53.50;;;;;;5032404;28;20450;-78
2021/11/08 08:24:34;;;;;;;1.40;1.03;;;21.80;53.50;;;;;;5032561;28;20450;-79
2021/11/08 08:27:04;;;;;;;2.27;1.20;;;21.80;53.50;;;;;;5032808;28;20415;-78
2021/11/08 08:29:32;;;;;;;1.43;1.10;;;21.80;53.50;;;;;;5017829;28;20187;-80
2021/11/08 08:31:58;;;;;;;1.47;1.00;;;21.80;53.50;;;;;;5031998;28;20468;-79
2021/11/08 08:34:25;;;;;;;2.17;1.30;;;21.80;53.50;;;;;;5020322;28;20423;-80
2021/11/08 08:36:53;;;;;;;1.57;0.90;;;21.80;53.50;;;;;;5042092;28;20190;-79
2021/11/08 08:39:20;;;;;;;1.60;1.10;;;21.80;53.50;;;;;;5055970;28;20496;-80
2021/11/08 08:41:47;;;;;;;3.27;1.60;;;21.80;53.50;;;;;;5038718;28;20414;-79
2021/11/08 08:44:13;;;;;;;1.87;1.10;;;21.80;53.50;;;;;;5035927;28;20434;-78
2021/11/08 08:46:43;;;;;;;1.83;1.23;;;21.90;53.60;;;;;;5037708;28;20427;-80
2021/11/08 08:49:13;;;;;;;1.40;1.20;;;21.90;53.60;;;;;;5034352;28;20433;-80
2021/11/08 08:51:39;;;;;;;1.87;1.20;;;21.90;53.60;;;;;;5055426;28;20425;-79
2021/11/08 08:54:05;;;;;;;2.00;1.60;;;21.90;53.70;;;;;;5038272;28;20398;-79
2021/11/08 08:56:34;;;;;;;2.10;1.00;;;21.90;53.60;;;;;;5055198;28;20207;-81
2021/11/08 08:59:01;;;;;;;2.43;1.30;;;21.80;53.60;;;;;;5055092;28;20480;-79
2021/11/08 09:01:28;;;;;;;3.13;1.10;;;21.80;53.60;;;;;;5056922;28;20422;-79
2021/11/08 09:03:57;;;;;;;12.60;2.17;;;21.80;53.60;;;;;;5056240;28;20477;-79
2021/11/08 09:06:23;;;;;;;1.63;1.30;;;21.80;53.60;;;;;;5039786;28;20478;-79
2021/11/08 09:08:50;;;;;;;2.30;1.07;;;21.80;53.60;;;;;;5038766;28;20517;-79
2021/11/08 09:11:17;;;;;;;1.97;1.27;;;21.80;53.70;;;;;;5039280;28;20441;-79
2021/11/08 09:13:50;;;;;;;1.40;1.20;;;21.80;53.70;;;;;;5056506;28;20407;-79
2021/11/08 09:16:16;;;;;;;1.63;1.00;;;21.80;53.70;;;;;;5039759;28;20422;-78
2021/11/08 09:18:53;;;;;;;4.50;1.23;;;21.80;53.70;;;;;;5056535;28;20529;-78
2021/11/08 09:21:21;;;;;;;1.53;1.13;;;21.80;53.70;;;;;;5050245;28;20460;-79
2021/11/08 09:23:49;;;;;;;1.70;1.07;;;21.80;53.70;;;;;;5056456;28;20587;-78
2021/11/08 09:26:16;;;;;;;1.40;0.97;;;21.80;53.70;;;;;;5038715;28;20415;-78
2021/11/08 09:28:43;;;;;;;1.50;1.20;;;21.80;53.80;;;;;;5039838;28;20402;-79
2021/11/08 09:31:10;;;;;;;1.57;1.00;;;21.80;53.80;;;;;;5048983;28;20411;-78
2021/11/08 09:33:36;;;;;;;2.30;1.10;;;21.80;53.80;;;;;;5030988;28;20430;-79
2021/11/08 09:36:08;;;;;;;3.03;1.60;;;21.80;53.80;;;;;;5056193;28;20419;-78
2021/11/08 09:38:37;;;;;;;2.80;1.43;;;21.80;53.80;;;;;;5056396;28;20418;-78
2021/11/08 09:41:07;;;;;;;1.90;1.20;;;21.80;53.80;;;;;;5038538;28;20414;-79
2021/11/08 09:43:35;;;;;;;1.53;1.10;;;21.80;53.80;;;;;;5057043;28;20410;-78
2021/11/08 09:46:02;;;;;;;4.53;1.40;;;21.80;53.80;;;;;;5056419;28;20772;-78
2021/11/08 09:48:28;;;;;;;2.50;1.20;;;21.80;53.80;;;;;;5056386;28;20430;-78
2021/11/08 09:50:55;;;;;;;2.40;1.40;;;21.80;53.80;;;;;;5040121;28;20418;-79
2021/11/08 09:53:21;;;;;;;1.33;1.00;;;21.80;53.80;;;;;;5039102;28;20422;-79
2021/11/08 09:55:47;;;;;;;1.93;1.10;;;21.80;54.40;;;;;;5056437;28;20421;-78
2021/11/08 09:58:13;;;;;;;2.63;1.30;;;21.80;53.80;;;;;;5035654;28;20177;-78
2021/11/08 10:00:39;;;;;;;2.60;1.10;;;21.80;53.80;;;;;;5034060;28;20469;-78
2021/11/08 10:03:11;;;;;;;4.00;1.50;;;21.80;53.80;;;;;;5030379;28;20434;-79
2021/11/08 10:05:42;;;;;;;4.10;1.23;;;21.80;53.80;;;;;;5038551;28;20183;-79
2021/11/08 10:08:09;;;;;;;1.63;1.33;;;21.80;53.80;;;;;;5031543;28;20402;-79
2021/11/08 10:10:35;;;;;;;4.30;1.20;;;21.80;53.80;;;;;;5038735;28;20773;-79
2021/11/08 10:13:17;;;;;;;1.87;1.20;;;21.80;53.80;;;;;;5055961;28;20414;-79
2021/11/08 10:15:46;;;;;;;2.50;1.20;;;21.80;53.80;;;;;;5037320;28;20430;-80
2021/11/08 10:18:14;;;;;;;1.50;1.40;;;21.80;53.80;;;;;;5055615;28;20426;-79
2021/11/08 10:20:43;;;;;;;1.20;1.10;;;21.80;53.80;;;;;;5055170;28;20465;-80
2021/11/08 10:23:10;;;;;;;1.57;1.17;;;21.80;53.80;;;;;;5030733;28;20445;-79
2021/11/08 10:25:40;;;;;;;2.90;1.30;;;21.80;53.80;;;;;;5038516;28;20434;-79
2021/11/08 10:28:21;;;;;;;1.20;1.10;;;21.80;53.80;;;;;;5054966;28;20467;-80
2021/11/08 10:30:53;;;;;;;3.00;1.00;;;21.80;53.80;;;;;;5036765;28;20414;-80
2021/11/08 10:33:23;;;;;;;2.03;1.30;;;21.80;53.90;;;;;;5055444;28;20453;-80
2021/11/08 10:35:55;;;;;;;1.93;1.10;;;21.80;53.90;;;;;;5054318;28;20418;-80
2021/11/08 10:38:29;;;;;;;2.73;1.13;;;21.80;54.00;;;;;;5036194;28;20440;-80
2021/11/08 10:40:59;;;;;;;2.13;1.10;;;21.90;54.00;;;;;;5053872;28;20417;-80
2021/11/08 10:43:38;;;;;;;2.33;0.90;;;21.90;53.90;;;;;;5053923;28;20477;-79
2021/11/08 10:46:08;;;;;;;2.60;1.03;;;21.90;53.90;;;;;;5027412;28;20410;-80
2021/11/08 10:48:37;;;;;;;4.37;1.27;;;21.90;53.80;;;;;;5054051;28;20407;-80
2021/11/08 10:51:06;;;;;;;2.20;1.50;;;21.90;53.80;;;;;;5038257;28;20430;-79
2021/11/08 10:53:47;;;;;;;1.70;1.10;;;22.00;53.90;;;;;;5053544;28;20430;-80
2021/11/08 10:56:17;;;;;;;1.97;0.87;;;22.00;53.90;;;;;;5053576;28;20437;-80
2021/11/08 10:58:46;;;;;;;2.10;1.27;;;22.00;53.90;;;;;;5052881;28;20446;-80
2021/11/08 11:01:45;;;;;;;4.37;1.40;;;22.00;53.90;;;;;;5036737;28;20419;-80
2021/11/08 11:04:11;;;;;;;7.13;2.17;;;22.00;53.90;;;;;;5013844;28;20411;-80
2021/11/08 11:06:50;;;;;;;1.33;1.13;;;22.00;53.90;;;;;;5053510;28;20415;-80
2021/11/08 11:09:22;;;;;;;2.37;1.47;;;22.10;54.00;;;;;;5029343;28;20535;-80
2021/11/08 11:12:03;;;;;;;1.80;1.10;;;22.10;53.90;;;;;;5035189;28;20505;-80
2021/11/08 11:14:45;;;;;;;2.33;1.20;;;22.10;53.90;;;;;;5048495;28;20410;-80
2021/11/08 11:17:38;;;;;;;1.70;1.10;;;22.10;53.90;;;;;;5053482;28;20422;-80
2021/11/08 11:20:09;;;;;;;3.10;1.30;;;22.10;53.90;;;;;;5042316;28;20469;-79
2021/11/08 11:22:40;;;;;;;1.63;1.10;;;22.10;54.00;;;;;;5036173;28;20491;-80
2021/11/08 11:25:07;;;;;;;3.10;1.10;;;22.10;53.90;;;;;;5036398;28;20417;-80
2021/11/08 11:27:47;;;;;;;1.43;0.90;;;22.10;54.00;;;;;;5036113;28;20427;-80
2021/11/08 11:30:24;;;;;;;5.20;1.10;;;22.10;53.90;;;;;;5044276;28;20525;-80
2021/11/08 11:33:04;;;;;;;1.80;1.40;;;22.10;53.90;;;;;;5035081;28;20461;-80
2021/11/08 11:35:35;;;;;;;2.90;1.20;;;22.20;54.00;;;;;;5034803;28;20430;-80
2021/11/08 11:38:08;;;;;;;1.73;1.30;;;22.20;54.00;;;;;;5046381;28;20839;-80
2021/11/08 11:40:41;;;;;;;1.77;0.97;;;22.20;54.00;;;;;;5053139;28;20457;-79
2021/11/08 11:43:09;;;;;;;1.87;1.00;;;22.20;54.00;;;;;;5010185;28;20415;-80
2021/11/08 11:45:51;;;;;;;1.80;0.93;;;22.20;54.00;;;;;;5030101;28;20506;-80
2021/11/08 11:48:20;;;;;;;3.10;1.30;;;22.20;54.00;;;;;;5043148;28;20434;-80
2021/11/08 11:50:46;;;;;;;1.60;1.30;;;22.20;54.00;;;;;;5036611;28;20418;-81
2021/11/08 11:53:12;;;;;;;1.80;1.40;;;22.20;54.00;;;;;;5053179;28;20414;-80
2021/11/08 11:55:42;;;;;;;1.90;0.93;;;22.20;54.00;;;;;;5053011;28;20476;-80
2021/11/08 11:58:20;;;;;;;4.10;1.50;;;22.20;54.00;;;;;;5051835;28;20482;-80
2021/11/08 12:01:01;;;;;;;2.00;1.27;;;22.20;54.00;;;;;;5054959;28;20441;-80
2021/11/08 12:07:02;;;;;;;1.10;0.80;;;22.30;54.10;;;;;;4996660;28;20444;-78
2021/11/08 12:09:32;;;;;;;1.80;1.40;;;22.20;54.00;;;;;;4998848;28;20417;-78
2021/11/08 12:11:59;;;;;;;1.30;1.03;;;22.20;54.00;;;;;;4996527;28;20425;-79
2021/11/08 12:14:32;;;;;;;1.80;1.30;;;22.20;54.00;;;;;;4997847;28;20427;-79
2021/11/08 12:17:06;;;;;;;1.93;0.90;;;22.10;53.90;;;;;;4996926;28;20432;-79
2021/11/08 12:19:37;;;;;;;1.50;0.93;;;22.10;53.90;;;;;;4996862;28;20897;-78
2021/11/08 12:22:19;;;;;;;2.33;1.20;;;22.10;53.90;;;;;;4996067;28;20449;-79
2021/11/08 12:25:15;;;;;;;1.43;1.00;;;22.10;53.90;;;;;;4990381;28;20428;-78
2021/11/08 12:27:49;;;;;;;2.30;0.90;;;22.10;53.90;;;;;;4988425;28;20476;-79
2021/11/08 12:30:32;;;;;;;1.90;1.30;;;22.10;54.00;;;;;;4995586;28;20416;-77
2021/11/08 12:33:23;;;;;;;1.80;1.20;;;22.10;54.00;;;;;;4996684;28;20465;-80
2021/11/08 12:35:59;;;;;;;2.10;1.30;;;22.10;54.00;;;;;;5033093;28;20430;-78
2021/11/08 12:38:39;;;;;;;1.93;1.23;;;22.10;54.00;;;;;;5051967;28;20421;-78
2021/11/08 12:41:15;;;;;;;2.90;1.30;;;22.10;54.00;;;;;;5057125;28;20413;-78
2021/11/08 12:43:59;;;;;;;2.90;1.40;;;22.10;54.10;;;;;;5054031;28;20942;-78
2021/11/08 12:46:53;;;;;;;4.30;1.93;;;22.10;54.00;;;;;;5017975;28;20422;-78
2021/11/08 12:49:27;;;;;;;4.33;2.10;;;22.10;54.00;;;;;;5049386;28;20418;-78
2021/11/08 12:51:56;;;;;;;4.13;1.90;;;22.00;54.60;;;;;;5035373;28;20501;-78
2021/11/08 12:54:24;;;;;;;11.40;4.60;;;22.10;54.10;;;;;;5035007;28;20418;-78
2021/11/08 12:56:50;;;;;;;7.33;3.37;;;22.10;54.10;;;;;;5052945;28;20431;-78
2021/11/08 12:59:25;;;;;;;13.03;7.00;;;22.00;54.00;;;;;;5032581;28;20459;-77
2021/11/08 13:01:55;;;;;;;24.00;9.50;;;22.10;54.10;;;;;;5053553;28;20436;-78
2021/11/08 13:04:32;;;;;;;12.77;6.00;;;22.10;54.10;;;;;;5053037;28;20411;-79
2021/11/08 13:07:09;;;;;;;18.80;11.53;;;22.10;54.10;;;;;;5034493;28;20414;-78
2021/11/08 13:09:42;;;;;;;25.63;14.90;;;22.00;54.00;;;;;;5034678;28;20426;-77
2021/11/08 13:12:15;;;;;;;36.43;17.07;;;22.10;54.10;;;;;;5033984;28;20431;-78
2021/11/08 13:14:44;;;;;;;42.47;17.93;;;22.10;54.10;;;;;;5034456;28;20457;-78
2021/11/08 13:17:15;;;;;;;35.07;19.00;;;22.00;54.00;;;;;;5034163;28;20455;-78
2021/11/08 13:19:55;;;;;;;38.37;19.87;;;22.00;54.00;;;;;;5053332;28;20473;-78
2021/11/08 13:22:29;;;;;;;27.90;17.07;;;22.10;54.10;;;;;;5033541;28;20450;-78
2021/11/08 13:25:04;;;;;;;32.10;16.53;;;22.10;54.20;;;;;;5041940;28;20798;-77
2021/11/08 13:27:35;;;;;;;26.60;16.40;;;22.00;54.10;;;;;;5052246;28;20418;-78
2021/11/08 13:30:07;;;;;;;36.87;18.93;;;22.00;54.10;;;;;;5035038;28;20451;-77
2021/11/08 13:32:37;;;;;;;31.87;17.60;;;22.00;54.10;;;;;;5051376;28;20422;-78
2021/11/08 13:35:14;;;;;;;32.00;17.00;;;22.00;54.10;;;;;;5055413;28;20428;-78
2021/11/08 13:37:43;;;;;;;37.40;18.07;;;22.00;54.10;;;;;;5037657;28;20426;-78
2021/11/08 13:40:17;;;;;;;33.33;19.60;;;22.00;54.20;;;;;;5036055;28;20484;-78
2021/11/08 13:42:44;;;;;;;39.50;20.63;;;22.00;54.20;;;;;;5043107;28;20441;-78
2021/11/08 13:45:11;;;;;;;34.33;18.67;;;22.00;54.20;;;;;;5049437;28;20422;-78
2021/11/08 13:47:50;;;;;;;31.60;17.87;;;22.00;54.20;;;;;;5049852;28;20923;-77
2021/11/08 13:50:20;;;;;;;36.93;19.77;;;22.00;54.20;;;;;;5047952;28;20415;-78
2021/11/08 13:52:53;;;;;;;32.60;18.03;;;22.00;54.20;;;;;;5034154;28;20426;-79
2021/11/08 13:55:19;;;;;;;40.17;20.07;;;22.00;54.20;;;;;;5035685;28;20453;-79
2021/11/08 13:57:45;;;;;;;38.90;21.07;;;22.00;54.30;;;;;;5052555;28;20418;-79
2021/11/08 14:00:21;;;;;;;35.43;19.20;;;22.00;54.30;;;;;;5053557;28;20200;-78
2021/11/08 14:02:50;;;;;;;39.03;20.53;;;22.00;54.30;;;;;;5035522;28;20484;-79
2021/11/08 14:05:21;;;;;;;35.10;18.60;;;22.00;54.30;;;;;;5053402;28;20415;-78
2021/11/08 14:07:49;;;;;;;39.93;18.50;;;22.00;54.30;;;;;;5052610;28;20414;-79
2021/11/08 14:10:16;;;;;;;33.70;18.40;;;22.00;54.30;;;;;;5035064;28;20430;-79
2021/11/08 14:12:42;;;;;;;37.50;18.73;;;22.00;54.30;;;;;;5052425;28;20442;-79
2021/11/08 14:15:34;;;;;;;39.53;18.87;;;22.00;54.30;;;;;;5046059;28;20442;-77
2021/11/08 14:18:01;;;;;;;29.43;17.60;;;22.00;54.20;;;;;;5052260;28;20171;-78
2021/11/08 14:20:29;;;;;;;31.80;19.30;;;22.00;54.30;;;;;;5035416;28;20454;-78
2021/11/08 14:22:55;;;;;;;34.20;18.17;;;22.00;54.30;;;;;;5033327;28;20446;-79
2021/11/08 14:25:21;;;;;;;32.40;19.23;;;22.00;54.20;;;;;;5052316;28;20418;-79
2021/11/08 14:27:47;;;;;;;31.40;16.80;;;22.00;54.20;;;;;;5034164;28;20179;-79
2021/11/08 14:30:22;;;;;;;33.07;17.20;;;22.00;54.20;;;;;;5034051;28;20462;-79
2021/11/08 14:32:53;;;;;;;29.50;16.30;;;22.00;54.20;;;;;;5035429;28;20505;-78
2021/11/08 14:35:34;;;;;;;32.97;17.43;;;22.00;54.20;;;;;;5035030;28;20422;-78
2021/11/08 14:38:24;;;;;;;30.10;17.33;;;22.00;54.20;;;;;;5051511;28;20485;-78
2021/11/08 14:40:50;;;;;;;30.13;16.73;;;22.00;54.20;;;;;;5053019;28;20446;-78
2021/11/08 14:43:25;;;;;;;29.03;15.47;;;22.00;54.20;;;;;;5035972;28;20493;-78
2021/11/08 14:46:05;;;;;;;30.60;16.03;;;22.00;54.20;;;;;;5042271;28;20406;-78
2021/11/08 14:48:40;;;;;;;28.00;15.70;;;22.00;54.20;;;;;;5053330;28;20410;-78
2021/11/08 14:51:19;;;;;;;34.47;16.50;;;22.00;54.30;;;;;;5036205;28;20429;-78
2021/11/08 14:57:19;;;;;;;31.33;15.93;;;22.00;54.30;;;;;;5053796;28;20386;-78
2021/11/08 14:59:54;;;;;;;27.10;16.17;;;22.00;54.30;;;;;;5009494;28;20474;-79
2021/11/08 15:02:25;;;;;;;23.80;13.87;;;22.00;54.40;;;;;;5030153;28;20419;-79
2021/11/08 15:04:59;;;;;;;36.40;16.07;;;22.00;54.40;;;;;;5028605;28;20529;-77
2021/11/08 15:07:31;;;;;;;31.13;14.97;;;22.00;54.60;;;;;;5015162;28;20419;-79
2021/11/08 15:10:04;;;;;;;34.47;16.57;;;22.10;54.40;;;;;;5031651;28;20427;-79
2021/11/08 15:13:01;;;;;;;22.17;14.70;;;22.10;54.40;;;;;;5036196;28;20430;-79
2021/11/08 15:15:34;;;;;;;31.53;16.90;;;22.10;54.30;;;;;;4969437;28;20435;-79